Time;durP1;ratioP1;P1;durP2;ratioP2;P2;SDS_P1;SDS_P2;PMS_P1;PMS_P2;Temp;Humidity;BMP_temperature;BMP_pressure;BME280_temperature;BME280_humidity;BME280_pressure;Samples;Min_cycle;Max_cycle;Signal;HPM_P1;HPM_P2
2021/01/27 00:01:42;;;;;;;3.97;2.33;;;21.80;50.80;;;;;;5077208;28;20165;-70
2021/01/27 00:04:08;;;;;;;5.40;3.17;;;21.80;50.80;;;;;;5095167;28;20173;-70
2021/01/27 00:06:36;;;;;;;3.90;2.10;;;21.80;50.80;;;;;;5095020;28;20664;-70
2021/01/27 00:09:03;;;;;;;3.80;2.50;;;21.80;50.80;;;;;;5095069;28;20177;-70
2021/01/27 00:11:28;;;;;;;4.80;2.37;;;21.80;50.80;;;;;;5095286;28;20491;-70
2021/01/27 00:13:54;;;;;;;3.23;2.07;;;21.80;50.80;;;;;;5095028;28;20494;-70
2021/01/27 00:16:20;;;;;;;3.80;2.30;;;21.80;50.80;;;;;;5094664;28;20251;-70
2021/01/27 00:18:45;;;;;;;2.60;1.87;;;21.80;50.90;;;;;;5094858;28;20180;-70
2021/01/27 00:21:11;;;;;;;3.77;1.87;;;21.80;50.80;;;;;;5094986;28;20392;-70
2021/01/27 00:23:37;;;;;;;3.70;2.17;;;21.80;50.80;;;;;;5095067;28;20161;-70
2021/01/27 00:26:02;;;;;;;2.50;2.20;;;21.80;50.80;;;;;;5094964;28;20660;-70
2021/01/27 00:28:28;;;;;;;4.37;2.60;;;21.80;50.80;;;;;;5076925;28;20260;-70
2021/01/27 00:30:56;;;;;;;3.77;2.07;;;21.80;50.80;;;;;;5094855;28;20714;-70
2021/01/27 00:33:21;;;;;;;4.77;2.40;;;21.80;50.80;;;;;;5076229;28;20173;-70
2021/01/27 00:35:49;;;;;;;5.23;2.30;;;21.80;50.80;;;;;;5094699;28;20451;-70
2021/01/27 00:38:18;;;;;;;4.27;2.17;;;21.80;50.90;;;;;;5094504;28;20166;-70
2021/01/27 00:40:45;;;;;;;3.57;2.13;;;21.80;50.90;;;;;;5076395;28;20842;-70
2021/01/27 00:43:12;;;;;;;4.77;2.50;;;21.80;51.00;;;;;;5094327;28;20763;-70
2021/01/27 00:45:37;;;;;;;4.40;2.40;;;21.80;51.40;;;;;;5094337;28;20403;-70
2021/01/27 00:48:04;;;;;;;4.13;2.40;;;21.80;50.90;;;;;;5094215;28;20477;-70
2021/01/27 00:50:30;;;;;;;3.77;2.30;;;21.70;50.80;;;;;;5093600;28;20181;-70
2021/01/27 00:52:55;;;;;;;3.50;2.50;;;21.70;50.80;;;;;;5094201;28;20404;-70
2021/01/27 00:55:24;;;;;;;5.80;2.20;;;21.70;50.80;;;;;;5077004;28;20590;-70
2021/01/27 00:57:50;;;;;;;3.90;2.50;;;21.70;50.80;;;;;;5075982;28;20225;-70
2021/01/27 01:00:21;;;;;;;4.10;2.23;;;21.70;50.90;;;;;;5094110;28;20446;-70
2021/01/27 01:02:47;;;;;;;3.47;2.30;;;21.70;50.90;;;;;;5094014;28;20829;-70
2021/01/27 01:05:16;;;;;;;5.03;2.83;;;21.70;50.90;;;;;;5093988;28;20435;-69
2021/01/27 01:07:48;;;;;;;3.10;2.67;;;21.70;50.90;;;;;;5093981;28;20219;-70
2021/01/27 01:10:25;;;;;;;3.80;2.30;;;21.70;50.90;;;;;;5075753;28;20408;-70
2021/01/27 01:12:51;;;;;;;4.53;2.50;;;21.70;50.90;;;;;;5093774;28;20403;-70
2021/01/27 01:15:17;;;;;;;6.70;3.03;;;21.70;51.00;;;;;;5075547;28;20504;-70
2021/01/27 01:17:43;;;;;;;2.90;2.20;;;21.60;50.90;;;;;;5093732;28;20542;-70
2021/01/27 01:20:14;;;;;;;5.07;2.43;;;21.60;50.90;;;;;;5093978;28;20429;-70
2021/01/27 01:22:44;;;;;;;3.57;2.93;;;21.60;50.90;;;;;;5093725;28;20230;-70
2021/01/27 01:25:10;;;;;;;3.60;2.50;;;21.60;50.90;;;;;;5093817;28;20400;-69
2021/01/27 01:27:36;;;;;;;3.50;2.30;;;21.60;50.90;;;;;;5093494;28;20432;-70
2021/01/27 01:30:15;;;;;;;3.00;2.10;;;21.60;50.90;;;;;;5093496;28;20515;-70
2021/01/27 01:32:40;;;;;;;4.50;2.37;;;21.60;51.00;;;;;;5093691;28;20665;-70
2021/01/27 01:35:07;;;;;;;3.57;2.50;;;21.60;51.00;;;;;;5075076;28;20554;-70
2021/01/27 01:37:33;;;;;;;3.67;2.27;;;21.60;51.00;;;;;;5093515;28;20268;-70
2021/01/27 01:39:58;;;;;;;5.10;2.30;;;21.60;51.00;;;;;;5075585;28;20821;-70
2021/01/27 01:42:24;;;;;;;4.50;2.23;;;21.60;51.00;;;;;;5093511;28;20252;-70
2021/01/27 01:44:49;;;;;;;5.47;2.43;;;21.50;51.00;;;;;;5093565;28;20248;-70
2021/01/27 01:47:15;;;;;;;2.37;1.70;;;21.50;51.00;;;;;;5093143;28;20232;-70
2021/01/27 01:49:41;;;;;;;5.33;2.67;;;21.50;51.00;;;;;;5093303;28;20188;-70
2021/01/27 01:52:07;;;;;;;6.53;2.50;;;21.50;51.00;;;;;;5093250;28;20176;-70
2021/01/27 01:54:43;;;;;;;3.87;2.30;;;21.50;51.00;;;;;;5093191;28;20461;-70
2021/01/27 01:57:21;;;;;;;7.50;2.80;;;21.50;51.00;;;;;;5074991;28;20538;-70
2021/01/27 01:59:53;;;;;;;2.47;1.77;;;21.50;51.10;;;;;;5093122;28;20437;-70
2021/01/27 02:02:20;;;;;;;3.73;2.60;;;21.40;51.00;;;;;;5092990;28;20394;-69
2021/01/27 02:04:59;;;;;;;5.43;2.90;;;21.50;51.10;;;;;;5093389;28;20876;-70
2021/01/27 02:07:25;;;;;;;3.10;1.80;;;21.50;51.00;;;;;;5093127;28;20460;-70
2021/01/27 02:09:50;;;;;;;4.90;2.67;;;21.40;51.00;;;;;;5074833;28;20419;-70
2021/01/27 02:12:27;;;;;;;4.20;2.70;;;21.40;51.00;;;;;;5092997;28;20399;-70
2021/01/27 02:15:11;;;;;;;4.13;2.40;;;21.50;51.00;;;;;;5092960;28;20146;-70
2021/01/27 02:17:44;;;;;;;4.67;2.60;;;21.50;51.00;;;;;;5092934;28;20419;-70
2021/01/27 02:20:25;;;;;;;3.07;2.13;;;21.50;51.10;;;;;;5093188;28;20395;-70
2021/01/27 02:23:09;;;;;;;3.30;2.20;;;21.50;51.00;;;;;;5074824;28;20448;-70
2021/01/27 02:25:44;;;;;;;2.30;1.80;;;21.50;51.00;;;;;;5074824;28;20465;-70
2021/01/27 02:28:17;;;;;;;3.13;2.23;;;21.40;51.00;;;;;;5092848;28;20407;-70
2021/01/27 02:30:45;;;;;;;4.17;2.17;;;21.50;51.10;;;;;;5092882;28;20414;-70
2021/01/27 02:33:20;;;;;;;2.47;1.70;;;21.50;51.00;;;;;;5092971;28;20910;-70
2021/01/27 02:36:04;;;;;;;3.00;2.00;;;21.50;51.00;;;;;;5092636;28;20438;-70
2021/01/27 02:38:40;;;;;;;4.17;2.07;;;21.50;51.00;;;;;;5093040;28;20483;-70
2021/01/27 02:41:13;;;;;;;5.63;2.83;;;21.40;51.00;;;;;;5092766;28;20411;-70
2021/01/27 02:43:53;;;;;;;4.47;2.70;;;21.50;51.00;;;;;;5092741;28;20392;-70
2021/01/27 02:46:42;;;;;;;3.17;1.83;;;21.50;51.00;;;;;;5092644;28;20427;-70
2021/01/27 02:49:13;;;;;;;3.00;1.93;;;21.40;51.00;;;;;;5092767;28;20399;-69
2021/01/27 02:51:54;;;;;;;3.90;2.77;;;21.40;51.00;;;;;;5092497;28;20411;-69
2021/01/27 02:54:30;;;;;;;2.60;1.60;;;21.50;51.00;;;;;;5074788;28;20415;-70
2021/01/27 02:57:02;;;;;;;3.80;1.60;;;21.50;51.10;;;;;;5075239;28;20508;-70
2021/01/27 02:59:39;;;;;;;3.67;1.90;;;21.40;51.00;;;;;;5092510;28;20422;-69
2021/01/27 03:02:13;;;;;;;4.70;1.93;;;21.50;51.00;;;;;;5092678;28;20388;-69
2021/01/27 03:04:53;;;;;;;3.33;1.83;;;21.40;51.00;;;;;;5092681;28;20897;-70
2021/01/27 03:07:23;;;;;;;3.27;1.77;;;21.40;51.00;;;;;;5092762;28;20431;-70
2021/01/27 03:10:25;;;;;;;4.00;2.30;;;21.40;51.00;;;;;;5092778;28;20752;-70
2021/01/27 03:12:51;;;;;;;3.87;1.70;;;21.40;50.90;;;;;;5092465;28;20403;-70
2021/01/27 03:15:18;;;;;;;2.90;2.10;;;21.40;51.00;;;;;;5095452;28;20458;-70
2021/01/27 03:17:47;;;;;;;4.97;2.00;;;21.40;51.00;;;;;;5077750;28;20435;-70
2021/01/27 03:20:32;;;;;;;4.17;2.30;;;21.40;51.00;;;;;;5096046;28;20399;-70
2021/01/27 03:23:17;;;;;;;4.10;2.17;;;21.40;51.00;;;;;;5095890;28;20383;-70
2021/01/27 03:25:53;;;;;;;4.13;2.20;;;21.40;51.00;;;;;;5095942;28;20392;-70
2021/01/27 03:28:24;;;;;;;2.07;1.87;;;21.40;51.00;;;;;;5095923;28;20383;-69
2021/01/27 03:30:51;;;;;;;4.70;2.60;;;21.40;51.00;;;;;;5095906;28;20388;-70
2021/01/27 03:33:27;;;;;;;3.80;1.80;;;21.30;50.90;;;;;;5095666;28;20784;-70
2021/01/27 03:35:58;;;;;;;5.20;2.17;;;21.40;51.00;;;;;;5077529;28;20447;-70
2021/01/27 03:38:36;;;;;;;2.83;1.70;;;21.30;50.90;;;;;;5096027;28;20471;-70
2021/01/27 03:41:25;;;;;;;4.13;2.43;;;21.40;51.00;;;;;;5095676;28;20548;-70
2021/01/27 03:44:15;;;;;;;2.70;1.60;;;21.40;51.00;;;;;;5056035;28;20476;-70
2021/01/27 03:47:00;;;;;;;3.10;1.97;;;21.30;50.90;;;;;;5095772;28;20424;-70
2021/01/27 03:49:35;;;;;;;2.30;1.90;;;21.30;51.00;;;;;;5095798;28;20392;-69
2021/01/27 03:52:09;;;;;;;4.00;2.07;;;21.30;51.00;;;;;;5077402;28;20893;-70
2021/01/27 03:54:39;;;;;;;2.60;1.63;;;21.30;50.90;;;;;;5095531;28;20475;-70
2021/01/27 03:57:14;;;;;;;3.20;2.00;;;21.30;50.90;;;;;;5095302;28;20463;-70
2021/01/27 03:59:43;;;;;;;2.50;1.43;;;21.40;51.00;;;;;;5095383;28;20434;-70
2021/01/27 04:02:18;;;;;;;3.20;1.90;;;21.30;50.90;;;;;;5077643;28;20415;-70
2021/01/27 04:04:44;;;;;;;2.73;1.60;;;21.40;50.90;;;;;;5095164;28;20430;-70
2021/01/27 04:07:10;;;;;;;2.53;1.80;;;21.40;50.90;;;;;;5095225;28;20427;-70
2021/01/27 04:09:36;;;;;;;3.10;1.83;;;21.40;50.90;;;;;;5095199;28;20422;-70
2021/01/27 04:12:01;;;;;;;3.13;1.70;;;21.40;50.90;;;;;;5095070;28;20166;-70
2021/01/27 04:14:27;;;;;;;4.23;1.77;;;21.40;50.90;;;;;;5095018;28;20583;-70
2021/01/27 04:16:53;;;;;;;2.93;1.70;;;21.40;50.90;;;;;;5093810;28;20467;-70
2021/01/27 04:19:18;;;;;;;3.50;2.23;;;21.40;50.80;;;;;;5094963;28;20162;-70
2021/01/27 04:21:44;;;;;;;3.40;1.73;;;21.40;50.80;;;;;;5076684;28;20232;-70
2021/01/27 04:24:10;;;;;;;2.07;1.73;;;21.40;50.80;;;;;;5095089;28;20584;-70
2021/01/27 04:26:36;;;;;;;3.10;1.90;;;21.40;50.80;;;;;;5093620;28;20201;-70
2021/01/27 04:29:02;;;;;;;3.13;1.80;;;21.40;50.80;;;;;;5094816;28;20170;-70
2021/01/27 04:31:28;;;;;;;2.70;1.70;;;21.40;50.80;;;;;;5094744;28;20189;-70
2021/01/27 04:33:53;;;;;;;2.30;1.70;;;21.40;50.80;;;;;;5094560;28;20435;-70
2021/01/27 04:36:22;;;;;;;2.70;1.80;;;21.40;50.80;;;;;;5094467;28;20741;-70
2021/01/27 04:38:50;;;;;;;3.73;2.13;;;21.40;50.80;;;;;;5094406;28;20174;-70
2021/01/27 04:41:16;;;;;;;2.43;1.90;;;21.40;50.80;;;;;;5094528;28;20924;-70
2021/01/27 04:43:45;;;;;;;4.60;2.20;;;21.40;50.80;;;;;;5094311;28;20890;-70
2021/01/27 04:46:33;;;;;;;2.80;1.77;;;21.40;50.80;;;;;;5094581;28;20435;-70
2021/01/27 04:49:20;;;;;;;3.40;1.63;;;21.40;50.80;;;;;;5076242;28;20411;-70
2021/01/27 04:52:13;;;;;;;2.97;1.90;;;21.40;50.80;;;;;;5094616;28;20458;-70
2021/01/27 04:55:05;;;;;;;3.37;1.37;;;21.40;50.80;;;;;;5094516;28;20393;-70
2021/01/27 04:58:12;;;;;;;2.50;1.87;;;21.30;50.80;;;;;;5075901;28;20861;-70
2021/01/27 05:01:22;;;;;;;2.63;1.87;;;21.30;50.90;;;;;;5075494;28;20778;-70
2021/01/27 05:04:06;;;;;;;2.50;1.73;;;21.30;50.90;;;;;;5068411;28;20451;-70
2021/01/27 05:06:38;;;;;;;2.53;1.63;;;21.30;50.90;;;;;;5093966;28;20476;-70
2021/01/27 05:09:27;;;;;;;4.40;2.03;;;21.20;50.90;;;;;;5075584;28;20921;-70
2021/01/27 05:11:53;;;;;;;2.47;1.60;;;21.20;50.90;;;;;;5094312;28;20493;-70
2021/01/27 05:14:20;;;;;;;2.90;2.03;;;21.20;50.90;;;;;;5094140;28;20415;-70
2021/01/27 05:16:50;;;;;;;2.57;2.07;;;21.20;50.90;;;;;;5093711;28;20475;-70
2021/01/27 05:19:15;;;;;;;2.60;1.60;;;21.20;50.90;;;;;;5075580;28;20427;-70
2021/01/27 05:21:53;;;;;;;2.30;1.80;;;21.20;50.90;;;;;;5093788;28;20416;-70
2021/01/27 05:24:19;;;;;;;3.30;1.60;;;21.20;50.90;;;;;;5094084;28;20600;-70
2021/01/27 05:27:19;;;;;;;2.40;1.67;;;21.20;50.90;;;;;;5094225;28;20449;-70
2021/01/27 05:29:56;;;;;;;2.07;1.70;;;21.20;50.90;;;;;;5079456;28;20814;-70
2021/01/27 05:32:23;;;;;;;2.30;1.60;;;21.20;50.90;;;;;;5075288;28;20917;-70
2021/01/27 05:34:53;;;;;;;2.43;1.53;;;21.20;50.90;;;;;;5093405;28;20431;-70
2021/01/27 05:37:28;;;;;;;2.63;1.70;;;21.20;50.90;;;;;;5093456;28;20837;-69
2021/01/27 05:40:32;;;;;;;1.77;1.47;;;21.20;50.90;;;;;;5093477;28;20396;-70
2021/01/27 05:42:58;;;;;;;3.47;1.77;;;21.20;51.00;;;;;;5051548;28;20415;-70
2021/01/27 05:45:36;;;;;;;2.43;1.63;;;21.20;51.00;;;;;;5093680;28;20400;-70
2021/01/27 05:48:32;;;;;;;2.00;1.80;;;21.20;51.00;;;;;;5075187;28;20956;-70
2021/01/27 05:51:06;;;;;;;3.00;1.67;;;21.20;50.90;;;;;;5093500;28;20427;-70
2021/01/27 05:53:33;;;;;;;3.40;2.20;;;21.20;50.90;;;;;;5093271;28;20438;-70
2021/01/27 05:56:20;;;;;;;2.47;1.50;;;21.20;50.80;;;;;;5093067;28;20462;-70
2021/01/27 05:58:56;;;;;;;1.97;1.60;;;21.20;50.80;;;;;;5093546;28;20406;-70
2021/01/27 06:01:44;;;;;;;2.57;1.70;;;21.30;50.80;;;;;;5093168;28;20383;-70
2021/01/27 06:04:12;;;;;;;2.03;1.43;;;21.30;50.80;;;;;;5093303;28;20384;-70
2021/01/27 06:06:55;;;;;;;2.37;2.07;;;21.30;50.80;;;;;;5075906;28;21052;-70
2021/01/27 06:09:44;;;;;;;3.03;1.53;;;21.30;50.70;;;;;;5093374;28;20400;-70
2021/01/27 06:12:20;;;;;;;2.90;1.77;;;21.30;50.70;;;;;;5093645;28;20746;-70
2021/01/27 06:15:10;;;;;;;2.30;1.53;;;21.30;50.70;;;;;;5093040;28;20376;-70
2021/01/27 06:17:50;;;;;;;2.23;1.70;;;21.30;50.60;;;;;;5092883;28;20489;-70
2021/01/27 06:20:15;;;;;;;2.83;1.37;;;21.40;50.70;;;;;;5093241;28;20407;-70
2021/01/27 06:23:16;;;;;;;2.00;1.50;;;21.40;50.70;;;;;;5093327;28;20415;-69
2021/01/27 06:25:53;;;;;;;1.97;1.20;;;21.40;50.60;;;;;;5049599;28;20196;-70
2021/01/27 06:28:40;;;;;;;2.47;1.60;;;21.40;50.60;;;;;;5074767;28;20415;-70
2021/01/27 06:31:24;;;;;;;2.83;1.93;;;21.40;50.60;;;;;;5092909;28;20402;-70
2021/01/27 06:33:59;;;;;;;2.13;1.50;;;21.40;50.60;;;;;;5092762;28;20950;-69
2021/01/27 06:37:02;;;;;;;2.23;1.30;;;21.40;50.50;;;;;;5092872;28;20498;-70
2021/01/27 06:40:04;;;;;;;1.47;1.17;;;21.40;50.50;;;;;;5092896;28;20457;-70
2021/01/27 06:43:06;;;;;;;3.00;2.17;;;21.40;50.60;;;;;;5092838;28;20388;-68
2021/01/27 06:45:51;;;;;;;2.13;1.30;;;21.40;50.50;;;;;;5092778;28;20407;-71
2021/01/27 06:48:41;;;;;;;1.77;1.43;;;21.40;50.60;;;;;;5092749;28;20764;-68
2021/01/27 06:51:31;;;;;;;1.70;1.17;;;21.40;50.60;;;;;;5079868;28;20474;-68
2021/01/27 06:54:23;;;;;;;2.03;1.47;;;21.50;50.60;;;;;;5096610;28;20387;-69
2021/01/27 06:56:57;;;;;;;1.83;1.60;;;21.40;50.50;;;;;;5096416;28;20937;-69
2021/01/27 06:59:50;;;;;;;1.97;1.43;;;21.40;50.50;;;;;;5096581;28;20388;-69
2021/01/27 07:02:53;;;;;;;2.23;1.30;;;21.40;50.50;;;;;;5096483;28;20408;-70
2021/01/27 07:05:46;;;;;;;2.40;1.80;;;21.50;50.50;;;;;;5096365;28;20480;-69
2021/01/27 07:08:27;;;;;;;1.90;1.40;;;21.50;50.60;;;;;;5045197;28;20412;-69
2021/01/27 07:11:05;;;;;;;2.60;1.50;;;21.40;50.50;;;;;;5078188;28;20412;-70
2021/01/27 07:13:45;;;;;;;1.87;1.40;;;21.40;50.50;;;;;;5078051;28;20905;-70
2021/01/27 07:16:24;;;;;;;1.90;1.70;;;21.50;50.50;;;;;;5096128;28;20455;-70
2021/01/27 07:19:15;;;;;;;2.30;1.50;;;21.50;50.50;;;;;;5096177;28;20395;-70
2021/01/27 07:22:18;;;;;;;1.97;1.40;;;21.50;50.50;;;;;;5096142;28;20384;-68
2021/01/27 07:25:15;;;;;;;2.03;1.27;;;21.50;50.50;;;;;;5096320;28;20780;-70
2021/01/27 07:27:52;;;;;;;2.63;1.33;;;21.50;50.50;;;;;;5096034;28;20512;-68
2021/01/27 07:30:27;;;;;;;3.00;1.50;;;21.50;50.60;;;;;;5095988;28;20409;-69
2021/01/27 07:33:00;;;;;;;2.10;1.57;;;21.50;50.50;;;;;;5096031;28;20433;-69
2021/01/27 07:35:36;;;;;;;2.10;1.33;;;21.50;50.50;;;;;;5095639;28;20840;-70
2021/01/27 07:38:15;;;;;;;1.90;1.30;;;21.60;50.60;;;;;;5095741;28;20415;-70
2021/01/27 07:40:52;;;;;;;2.07;1.30;;;21.60;50.60;;;;;;5095791;28;20735;-70
2021/01/27 07:43:40;;;;;;;2.30;1.20;;;21.60;50.60;;;;;;5095719;28;20494;-69
2021/01/27 07:46:08;;;;;;;2.00;1.53;;;21.60;50.50;;;;;;5082140;28;20455;-68
2021/01/27 07:48:39;;;;;;;2.30;1.57;;;21.60;50.60;;;;;;5095592;28;20894;-67
2021/01/27 07:51:22;;;;;;;3.00;1.33;;;21.60;50.60;;;;;;5095576;28;20423;-69
2021/01/27 07:54:19;;;;;;;2.27;1.40;;;21.60;50.50;;;;;;5095474;28;20735;-69
2021/01/27 07:57:00;;;;;;;1.80;1.47;;;21.70;50.50;;;;;;5095449;28;20470;-68
2021/01/27 07:59:47;;;;;;;4.40;1.67;;;21.70;50.50;;;;;;5077009;28;20412;-68
2021/01/27 08:02:21;;;;;;;1.93;1.37;;;21.70;50.40;;;;;;5077254;28;20416;-69
2021/01/27 08:04:50;;;;;;;1.77;1.20;;;21.70;50.40;;;;;;5095496;28;20419;-68
2021/01/27 08:07:23;;;;;;;1.33;1.20;;;21.70;50.40;;;;;;5095070;28;20801;-69
2021/01/27 08:09:50;;;;;;;2.20;1.30;;;21.80;50.40;;;;;;5095209;28;20403;-69
2021/01/27 08:12:34;;;;;;;2.43;1.43;;;21.80;50.30;;;;;;5076964;28;20423;-69
2021/01/27 08:15:06;;;;;;;1.97;1.40;;;21.80;50.40;;;;;;5076757;28;20420;-68
2021/01/27 08:17:43;;;;;;;2.80;1.50;;;21.80;50.30;;;;;;5094882;28;20432;-69
2021/01/27 08:20:28;;;;;;;1.93;1.20;;;21.80;50.30;;;;;;5094934;28;20406;-68
2021/01/27 08:22:58;;;;;;;1.70;1.40;;;21.90;50.40;;;;;;5094890;28;20395;-69
2021/01/27 08:25:52;;;;;;;3.87;1.23;;;21.80;50.30;;;;;;5094711;28;20414;-68
2021/01/27 08:28:35;;;;;;;2.30;1.50;;;21.90;50.40;;;;;;5076736;28;20929;-68
2021/01/27 08:31:07;;;;;;;1.30;1.13;;;21.90;50.40;;;;;;5095114;28;20396;-69
2021/01/27 08:33:42;;;;;;;1.50;1.30;;;21.90;50.40;;;;;;5094421;28;20431;-70
2021/01/27 08:36:36;;;;;;;1.60;1.20;;;21.90;50.30;;;;;;5094538;28;20969;-70
2021/01/27 08:39:08;;;;;;;1.80;1.30;;;21.90;50.30;;;;;;5076926;28;20423;-69
2021/01/27 08:41:56;;;;;;;4.00;1.40;;;21.90;50.30;;;;;;5094587;28;20400;-68
2021/01/27 08:44:22;;;;;;;1.90;1.20;;;22.00;50.40;;;;;;5095202;28;20961;-68
2021/01/27 08:46:48;;;;;;;1.90;1.30;;;21.90;50.30;;;;;;5096133;28;20462;-68
2021/01/27 08:49:35;;;;;;;1.97;1.30;;;22.00;50.40;;;;;;5094496;28;20210;-68
2021/01/27 08:52:10;;;;;;;2.40;1.30;;;22.00;50.30;;;;;;5094336;28;20902;-69
2021/01/27 08:54:39;;;;;;;1.20;1.03;;;22.00;50.40;;;;;;5076125;28;20435;-69
2021/01/27 08:57:38;;;;;;;1.73;1.27;;;22.00;50.40;;;;;;5094069;28;20460;-69
2021/01/27 09:00:09;;;;;;;2.20;1.20;;;22.00;50.40;;;;;;5094164;28;20902;-69
2021/01/27 09:02:45;;;;;;;1.70;1.13;;;22.00;50.30;;;;;;5094128;28;20431;-68
2021/01/27 09:05:33;;;;;;;1.73;1.17;;;22.10;50.40;;;;;;5075904;28;20416;-69
2021/01/27 09:08:10;;;;;;;1.83;1.23;;;22.10;50.40;;;;;;5093950;28;20480;-69
2021/01/27 09:10:42;;;;;;;2.90;1.30;;;22.10;50.40;;;;;;5094033;28;20423;-69
2021/01/27 09:13:30;;;;;;;2.70;1.50;;;22.10;50.40;;;;;;5093358;28;20411;-67
2021/01/27 09:16:00;;;;;;;2.20;1.70;;;22.10;50.40;;;;;;5093650;28;20479;-68
2021/01/27 09:18:26;;;;;;;1.80;1.20;;;22.10;50.40;;;;;;5093919;28;20384;-72
2021/01/27 09:20:52;;;;;;;2.00;1.30;;;22.10;50.40;;;;;;5093803;28;20970;-68
2021/01/27 09:23:20;;;;;;;2.73;1.40;;;22.10;50.40;;;;;;5093762;28;20572;-67
2021/01/27 09:25:48;;;;;;;1.40;1.10;;;22.10;50.40;;;;;;5093636;28;20818;-68
2021/01/27 09:28:22;;;;;;;1.10;0.93;;;22.10;50.40;;;;;;5098708;28;20416;-68
2021/01/27 09:30:48;;;;;;;1.90;1.30;;;22.10;50.40;;;;;;5093613;28;20731;-66
2021/01/27 09:33:28;;;;;;;1.50;1.13;;;22.10;50.40;;;;;;5093459;28;20502;-67
2021/01/27 09:36:10;;;;;;;2.37;1.63;;;22.20;50.40;;;;;;5093405;28;20454;-67
2021/01/27 09:38:36;;;;;;;2.70;1.43;;;22.20;50.50;;;;;;5093510;28;20396;-65
2021/01/27 09:41:13;;;;;;;2.00;1.40;;;22.20;50.50;;;;;;5093699;28;20772;-66
2021/01/27 09:43:43;;;;;;;1.30;0.90;;;22.20;50.50;;;;;;5093435;28;20392;-67
2021/01/27 09:46:34;;;;;;;2.27;1.23;;;22.20;50.50;;;;;;5093309;28;20465;-66
2021/01/27 09:49:11;;;;;;;1.80;1.40;;;22.20;50.40;;;;;;5083674;28;20420;-68
2021/01/27 09:51:39;;;;;;;1.70;1.23;;;22.20;50.50;;;;;;5093470;28;20395;-68
2021/01/27 09:54:06;;;;;;;1.30;1.00;;;22.20;50.50;;;;;;5093572;28;20408;-68
2021/01/27 09:56:32;;;;;;;1.57;1.10;;;22.20;50.50;;;;;;5095574;28;20463;-67
2021/01/27 09:59:00;;;;;;;1.73;1.40;;;22.20;50.50;;;;;;5094373;28;20877;-67
2021/01/27 10:01:30;;;;;;;1.63;1.20;;;22.20;50.50;;;;;;5058330;28;20419;-67
2021/01/27 10:04:08;;;;;;;2.43;1.23;;;22.20;50.50;;;;;;5093537;28;20399;-68
2021/01/27 10:06:49;;;;;;;1.57;1.20;;;22.20;50.50;;;;;;5074747;28;20500;-68
2021/01/27 10:09:21;;;;;;;1.73;1.13;;;22.20;50.50;;;;;;5093101;28;20437;-66
2021/01/27 10:11:57;;;;;;;1.30;1.00;;;22.20;50.50;;;;;;5092912;28;20416;-66
2021/01/27 10:14:27;;;;;;;1.40;1.10;;;22.20;50.50;;;;;;5093207;28;20482;-68
2021/01/27 10:16:55;;;;;;;1.60;1.20;;;22.20;50.60;;;;;;5093350;28;20973;-68
2021/01/27 10:19:27;;;;;;;2.80;1.30;;;22.20;50.70;;;;;;5093807;28;20898;-65
2021/01/27 10:21:56;;;;;;;1.63;1.20;;;22.20;50.60;;;;;;5094128;28;20415;-68
2021/01/27 10:24:50;;;;;;;3.43;1.07;;;22.20;50.60;;;;;;5095099;28;20858;-68
2021/01/27 10:27:30;;;;;;;2.03;1.00;;;22.20;50.50;;;;;;5079263;28;20443;-66
2021/01/27 10:29:55;;;;;;;1.40;1.10;;;22.30;50.70;;;;;;5096985;28;20435;-68
2021/01/27 10:32:41;;;;;;;1.10;0.87;;;22.20;50.60;;;;;;5096981;28;20443;-67
2021/01/27 10:35:24;;;;;;;5.33;1.20;;;22.30;50.70;;;;;;5096759;28;20185;-67
2021/01/27 10:38:14;;;;;;;2.20;1.17;;;22.30;50.70;;;;;;5096888;28;20443;-67
2021/01/27 10:41:01;;;;;;;2.43;1.10;;;22.30;50.60;;;;;;5096940;28;20388;-67
2021/01/27 10:43:28;;;;;;;1.60;1.30;;;22.20;50.60;;;;;;5096899;28;20435;-68
2021/01/27 10:45:55;;;;;;;1.50;1.07;;;22.20;50.60;;;;;;5096619;28;20498;-68
2021/01/27 10:48:21;;;;;;;2.80;1.40;;;22.30;50.70;;;;;;5096711;28;20418;-67
2021/01/27 10:50:50;;;;;;;1.90;1.30;;;22.30;50.70;;;;;;5096906;28;20450;-68
2021/01/27 10:53:18;;;;;;;1.47;1.30;;;22.30;50.60;;;;;;5096590;28;20412;-68
2021/01/27 10:55:54;;;;;;;1.60;1.20;;;22.30;50.60;;;;;;5078075;28;21015;-67
2021/01/27 10:58:21;;;;;;;1.50;1.00;;;22.30;50.60;;;;;;5096508;28;20422;-67
2021/01/27 11:00:47;;;;;;;1.67;1.10;;;22.30;50.60;;;;;;5096438;28;20410;-68
2021/01/27 11:03:13;;;;;;;2.17;1.30;;;22.30;50.60;;;;;;5096444;28;20400;-67
2021/01/27 11:05:40;;;;;;;1.50;1.13;;;22.30;50.60;;;;;;5096383;28;20408;-68
2021/01/27 11:08:10;;;;;;;1.50;1.10;;;22.30;50.60;;;;;;5077967;28;20450;-66
2021/01/27 11:10:35;;;;;;;1.40;1.10;;;22.30;50.60;;;;;;5096275;28;20415;-64
2021/01/27 11:13:01;;;;;;;1.40;1.07;;;22.30;50.60;;;;;;5096525;28;20409;-66
2021/01/27 11:15:27;;;;;;;1.37;1.00;;;22.30;50.60;;;;;;5099869;28;20278;-67
2021/01/27 11:17:52;;;;;;;1.60;1.20;;;22.30;50.60;;;;;;5103820;28;20235;-67
2021/01/27 11:20:22;;;;;;;1.20;1.00;;;22.30;50.60;;;;;;5103449;28;20206;-66
2021/01/27 11:22:49;;;;;;;1.57;1.00;;;22.40;50.70;;;;;;5096076;28;20243;-66
2021/01/27 11:25:18;;;;;;;1.87;1.00;;;22.40;50.70;;;;;;5096294;28;20474;-68
2021/01/27 11:27:45;;;;;;;1.10;0.97;;;22.40;50.70;;;;;;5095807;28;20562;-67
2021/01/27 11:30:11;;;;;;;1.53;0.90;;;22.40;50.70;;;;;;5096324;28;20780;-68
2021/01/27 11:32:40;;;;;;;2.53;0.90;;;22.40;50.70;;;;;;5095926;28;20435;-68
2021/01/27 11:35:06;;;;;;;1.30;1.10;;;22.40;50.70;;;;;;5095024;28;20463;-67
2021/01/27 11:37:32;;;;;;;1.17;0.90;;;22.40;50.70;;;;;;5102761;28;20428;-66
2021/01/27 11:39:58;;;;;;;1.33;0.90;;;22.40;50.70;;;;;;5111913;28;20400;-67
2021/01/27 11:42:23;;;;;;;2.60;1.23;;;22.40;50.70;;;;;;5113876;28;20272;-67
2021/01/27 11:44:49;;;;;;;1.60;1.03;;;22.40;50.70;;;;;;5113609;28;20180;-67
2021/01/27 11:47:15;;;;;;;1.83;1.00;;;22.40;50.70;;;;;;5112870;28;20186;-66
2021/01/27 11:49:44;;;;;;;1.77;1.20;;;22.40;50.70;;;;;;5113605;28;20223;-66
2021/01/27 11:52:10;;;;;;;1.30;1.07;;;22.40;50.70;;;;;;5112310;28;20637;-65
2021/01/27 11:54:39;;;;;;;1.13;0.83;;;22.40;50.70;;;;;;5111032;28;20471;-66
2021/01/27 11:57:06;;;;;;;2.23;1.00;;;22.40;50.70;;;;;;5113800;28;20455;-66
2021/01/27 11:59:32;;;;;;;1.37;0.97;;;22.40;50.60;;;;;;5115509;28;20471;-67
2021/01/27 12:02:01;;;;;;;1.67;1.03;;;22.40;50.60;;;;;;5114174;28;20434;-66
2021/01/27 12:04:27;;;;;;;1.00;0.80;;;22.40;50.60;;;;;;5095369;28;20170;-64
2021/01/27 12:06:52;;;;;;;1.40;0.90;;;22.40;50.60;;;;;;5113498;28;20427;-67
2021/01/27 12:09:18;;;;;;;2.63;1.43;;;22.40;50.60;;;;;;5111572;28;20181;-67
2021/01/27 12:11:44;;;;;;;1.90;1.10;;;22.40;50.60;;;;;;5110461;28;20174;-67
2021/01/27 12:14:10;;;;;;;1.40;0.90;;;22.40;50.60;;;;;;5113082;28;20507;-66
2021/01/27 12:16:35;;;;;;;1.37;1.10;;;22.40;50.60;;;;;;5112764;28;20216;-67
2021/01/27 12:19:01;;;;;;;2.17;1.13;;;22.40;50.60;;;;;;5112249;28;20170;-67
2021/01/27 12:21:26;;;;;;;2.30;0.90;;;22.40;50.70;;;;;;5112876;28;20570;-66
2021/01/27 12:23:52;;;;;;;1.17;0.90;;;22.40;50.60;;;;;;5111106;28;20170;-67
2021/01/27 12:26:18;;;;;;;1.73;1.30;;;22.50;50.70;;;;;;5115853;28;20196;-67
2021/01/27 12:28:44;;;;;;;1.70;1.10;;;22.50;50.70;;;;;;5115383;28;20191;-66
2021/01/27 12:31:10;;;;;;;1.63;1.07;;;22.50;50.70;;;;;;5115426;28;20216;-67
2021/01/27 12:33:36;;;;;;;1.20;0.97;;;22.50;50.70;;;;;;5115663;28;20423;-67
2021/01/27 12:36:03;;;;;;;1.17;0.87;;;22.50;50.70;;;;;;5110427;28;20443;-67
2021/01/27 12:38:28;;;;;;;1.47;0.90;;;22.50;50.70;;;;;;5110575;28;20495;-67
2021/01/27 12:40:55;;;;;;;1.50;0.90;;;22.50;50.70;;;;;;5110776;28;20408;-67
2021/01/27 12:43:21;;;;;;;2.30;1.00;;;22.50;50.70;;;;;;5110057;28;20165;-67
2021/01/27 12:45:46;;;;;;;1.20;1.10;;;22.50;50.70;;;;;;5109678;28;20490;-67
2021/01/27 12:48:12;;;;;;;1.33;0.97;;;22.50;50.70;;;;;;5108900;28;20647;-67
2021/01/27 12:50:38;;;;;;;1.10;0.90;;;22.40;50.60;;;;;;5109423;28;20173;-67
2021/01/27 12:53:04;;;;;;;1.20;0.90;;;22.40;50.50;;;;;;5109379;28;20181;-66
2021/01/27 12:55:29;;;;;;;1.23;1.03;;;22.40;50.60;;;;;;5108071;28;20197;-63
2021/01/27 12:57:56;;;;;;;1.87;1.67;;;22.40;50.60;;;;;;5110379;28;20310;-67
2021/01/27 13:00:24;;;;;;;3.00;1.30;;;22.40;50.60;;;;;;5092370;28;20184;-67
2021/01/27 13:02:51;;;;;;;1.60;1.20;;;22.40;50.60;;;;;;5092569;28;20441;-67
2021/01/27 13:05:18;;;;;;;1.13;1.00;;;22.40;50.60;;;;;;5110581;28;20412;-66
2021/01/27 13:07:44;;;;;;;1.53;1.03;;;22.40;50.60;;;;;;5109019;28;20439;-66
2021/01/27 13:10:11;;;;;;;1.70;1.37;;;22.40;50.60;;;;;;5110116;28;20415;-67
2021/01/27 13:12:38;;;;;;;1.40;1.20;;;22.40;50.60;;;;;;5109161;28;20170;-67
2021/01/27 13:15:09;;;;;;;1.77;1.30;;;22.40;50.70;;;;;;5109004;28;20480;-67
2021/01/27 13:17:35;;;;;;;1.20;1.10;;;22.40;50.70;;;;;;5091143;28;20444;-67
2021/01/27 13:20:01;;;;;;;1.50;1.10;;;22.40;50.70;;;;;;5109130;28;20407;-67
2021/01/27 13:22:26;;;;;;;1.40;1.17;;;22.40;50.70;;;;;;5108934;28;20395;-66